sensor_id;sensor_type;location;lat;lon;timestamp;P1;durP1;ratioP1;P2;durP2;ratioP2
51368;SDS011;37459;51.416;5.502;2022-08-19T00:00:27;17.08;;;15.27;;
51368;SDS011;37459;51.416;5.502;2022-08-19T00:02:53;18.70;;;15.65;;
51368;SDS011;37459;51.416;5.502;2022-08-19T00:05:20;20.17;;;16.75;;
51368;SDS011;37459;51.416;5.502;2022-08-19T00:07:48;19.52;;;16.05;;
51368;SDS011;37459;51.416;5.502;2022-08-19T00:10:16;17.98;;;15.80;;
51368;SDS011;37459;51.416;5.502;2022-08-19T00:12:44;18.67;;;15.95;;
51368;SDS011;37459;51.416;5.502;2022-08-19T00:15:11;19.77;;;16.92;;
51368;SDS011;37459;51.416;5.502;2022-08-19T00:17:42;21.67;;;19.33;;
51368;SDS011;37459;51.416;5.502;2022-08-19T00:20:10;22.00;;;18.77;;
51368;SDS011;37459;51.416;5.502;2022-08-19T00:22:39;20.83;;;18.58;;
51368;SDS011;37459;51.416;5.502;2022-08-19T00:25:06;26.58;;;19.52;;
51368;SDS011;37459;51.416;5.502;2022-08-19T00:27:33;21.33;;;18.52;;
51368;SDS011;37459;51.416;5.502;2022-08-19T00:30:00;22.70;;;18.15;;
51368;SDS011;37459;51.416;5.502;2022-08-19T00:32:28;21.95;;;17.95;;
51368;SDS011;37459;51.416;5.502;2022-08-19T00:34:56;20.55;;;18.35;;
51368;SDS011;37459;51.416;5.502;2022-08-19T00:37:23;22.40;;;18.52;;
51368;SDS011;37459;51.416;5.502;2022-08-19T00:39:50;21.33;;;18.65;;
51368;SDS011;37459;51.416;5.502;2022-08-19T00:42:17;22.02;;;18.85;;
51368;SDS011;37459;51.416;5.502;2022-08-19T00:44:46;20.90;;;18.70;;
51368;SDS011;37459;51.416;5.502;2022-08-19T00:47:12;21.13;;;17.65;;
51368;SDS011;37459;51.416;5.502;2022-08-19T00:49:40;19.83;;;17.55;;
51368;SDS011;37459;51.416;5.502;2022-08-19T00:52:14;22.05;;;18.17;;
51368;SDS011;37459;51.416;5.502;2022-08-19T00:54:43;21.63;;;18.67;;
51368;SDS011;37459;51.416;5.502;2022-08-19T00:57:13;23.48;;;19.75;;
51368;SDS011;37459;51.416;5.502;2022-08-19T00:59:44;25.08;;;21.02;;
51368;SDS011;37459;51.416;5.502;2022-08-19T01:02:14;25.17;;;21.27;;
51368;SDS011;37459;51.416;5.502;2022-08-19T01:04:41;23.90;;;21.40;;
51368;SDS011;37459;51.416;5.502;2022-08-19T01:07:07;25.80;;;22.25;;
51368;SDS011;37459;51.416;5.502;2022-08-19T01:09:35;25.75;;;22.25;;
51368;SDS011;37459;51.416;5.502;2022-08-19T01:12:02;24.98;;;21.10;;
51368;SDS011;37459;51.416;5.502;2022-08-19T01:14:29;23.98;;;20.05;;
51368;SDS011;37459;51.416;5.502;2022-08-19T01:16:57;26.88;;;21.17;;
51368;SDS011;37459;51.416;5.502;2022-08-19T01:19:26;27.05;;;22.80;;
51368;SDS011;37459;51.416;5.502;2022-08-19T01:21:55;25.60;;;22.00;;
51368;SDS011;37459;51.416;5.502;2022-08-19T01:24:29;25.63;;;22.15;;
51368;SDS011;37459;51.416;5.502;2022-08-19T01:26:56;25.75;;;21.50;;
51368;SDS011;37459;51.416;5.502;2022-08-19T01:29:23;24.63;;;20.50;;
51368;SDS011;37459;51.416;5.502;2022-08-19T01:31:50;24.45;;;20.38;;
51368;SDS011;37459;51.416;5.502;2022-08-19T01:34:17;24.13;;;21.27;;
51368;SDS011;37459;51.416;5.502;2022-08-19T01:36:45;30.27;;;23.63;;
51368;SDS011;37459;51.416;5.502;2022-08-19T01:39:14;26.65;;;22.02;;
51368;SDS011;37459;51.416;5.502;2022-08-19T01:41:43;30.73;;;24.33;;
51368;SDS011;37459;51.416;5.502;2022-08-19T01:44:10;32.60;;;24.83;;
51368;SDS011;37459;51.416;5.502;2022-08-19T01:46:37;31.80;;;26.27;;
51368;SDS011;37459;51.416;5.502;2022-08-19T01:49:05;30.42;;;24.50;;
51368;SDS011;37459;51.416;5.502;2022-08-19T01:51:32;31.92;;;25.48;;
51368;SDS011;37459;51.416;5.502;2022-08-19T01:53:58;33.38;;;26.33;;
51368;SDS011;37459;51.416;5.502;2022-08-19T01:56:25;31.83;;;25.50;;
51368;SDS011;37459;51.416;5.502;2022-08-19T01:58:54;28.67;;;25.00;;
51368;SDS011;37459;51.416;5.502;2022-08-19T02:01:23;28.65;;;22.75;;
51368;SDS011;37459;51.416;5.502;2022-08-19T02:03:50;26.95;;;22.92;;
51368;SDS011;37459;51.416;5.502;2022-08-19T02:06:18;28.17;;;21.75;;
51368;SDS011;37459;51.416;5.502;2022-08-19T02:08:45;27.38;;;21.50;;
51368;SDS011;37459;51.416;5.502;2022-08-19T02:11:18;26.52;;;20.65;;
51368;SDS011;37459;51.416;5.502;2022-08-19T02:13:46;27.35;;;22.10;;
51368;SDS011;37459;51.416;5.502;2022-08-19T02:16:15;26.25;;;21.98;;
51368;SDS011;37459;51.416;5.502;2022-08-19T02:18:42;29.27;;;22.75;;
51368;SDS011;37459;51.416;5.502;2022-08-19T02:21:08;25.80;;;22.88;;
51368;SDS011;37459;51.416;5.502;2022-08-19T02:23:35;31.80;;;24.77;;
51368;SDS011;37459;51.416;5.502;2022-08-19T02:26:02;28.33;;;22.10;;
51368;SDS011;37459;51.416;5.502;2022-08-19T02:28:28;25.13;;;21.98;;
51368;SDS011;37459;51.416;5.502;2022-08-19T02:30:55;30.00;;;22.67;;
51368;SDS011;37459;51.416;5.502;2022-08-19T02:33:23;29.15;;;23.10;;
51368;SDS011;37459;51.416;5.502;2022-08-19T02:35:50;30.30;;;23.80;;
51368;SDS011;37459;51.416;5.502;2022-08-19T02:38:16;30.70;;;24.45;;
51368;SDS011;37459;51.416;5.502;2022-08-19T02:40:51;28.67;;;23.30;;
51368;SDS011;37459;51.416;5.502;2022-08-19T02:43:19;29.45;;;23.40;;
51368;SDS011;37459;51.416;5.502;2022-08-19T02:45:46;29.10;;;23.35;;
51368;SDS011;37459;51.416;5.502;2022-08-19T02:48:14;27.58;;;23.45;;
51368;SDS011;37459;51.416;5.502;2022-08-19T02:50:43;27.40;;;23.55;;
51368;SDS011;37459;51.416;5.502;2022-08-19T02:53:10;32.67;;;24.85;;
51368;SDS011;37459;51.416;5.502;2022-08-19T02:55:41;33.45;;;24.23;;
51368;SDS011;37459;51.416;5.502;2022-08-19T02:58:09;31.90;;;25.30;;
51368;SDS011;37459;51.416;5.502;2022-08-19T03:00:40;31.80;;;24.63;;
51368;SDS011;37459;51.416;5.502;2022-08-19T03:03:08;30.80;;;24.20;;
51368;SDS011;37459;51.416;5.502;2022-08-19T03:05:35;28.23;;;22.60;;
51368;SDS011;37459;51.416;5.502;2022-08-19T03:08:03;29.60;;;22.55;;
51368;SDS011;37459;51.416;5.502;2022-08-19T03:10:30;29.50;;;22.20;;
51368;SDS011;37459;51.416;5.502;2022-08-19T03:12:57;29.35;;;24.27;;
51368;SDS011;37459;51.416;5.502;2022-08-19T03:15:23;30.45;;;23.45;;
51368;SDS011;37459;51.416;5.502;2022-08-19T03:17:50;30.70;;;23.73;;
51368;SDS011;37459;51.416;5.502;2022-08-19T03:20:16;28.48;;;22.77;;
51368;SDS011;37459;51.416;5.502;2022-08-19T03:22:43;30.98;;;22.95;;
51368;SDS011;37459;51.416;5.502;2022-08-19T03:25:11;30.08;;;24.05;;
51368;SDS011;37459;51.416;5.502;2022-08-19T03:27:37;30.27;;;23.33;;
51368;SDS011;37459;51.416;5.502;2022-08-19T03:30:04;27.65;;;23.05;;
51368;SDS011;37459;51.416;5.502;2022-08-19T03:32:31;29.73;;;23.27;;
51368;SDS011;37459;51.416;5.502;2022-08-19T03:34:58;29.67;;;23.15;;
51368;SDS011;37459;51.416;5.502;2022-08-19T03:37:24;27.27;;;22.10;;
51368;SDS011;37459;51.416;5.502;2022-08-19T03:39:51;28.52;;;21.70;;
51368;SDS011;37459;51.416;5.502;2022-08-19T03:42:19;31.30;;;24.55;;
51368;SDS011;37459;51.416;5.502;2022-08-19T03:44:46;36.80;;;27.08;;
51368;SDS011;37459;51.416;5.502;2022-08-19T03:47:12;33.75;;;26.05;;
51368;SDS011;37459;51.416;5.502;2022-08-19T03:49:41;31.05;;;24.63;;
51368;SDS011;37459;51.416;5.502;2022-08-19T03:52:07;30.50;;;24.65;;
51368;SDS011;37459;51.416;5.502;2022-08-19T03:54:34;32.45;;;25.70;;
51368;SDS011;37459;51.416;5.502;2022-08-19T03:57:01;30.85;;;24.75;;
51368;SDS011;37459;51.416;5.502;2022-08-19T03:59:32;33.97;;;26.08;;
51368;SDS011;37459;51.416;5.502;2022-08-19T04:02:01;32.65;;;24.63;;
51368;SDS011;37459;51.416;5.502;2022-08-19T04:04:32;33.25;;;25.45;;
51368;SDS011;37459;51.416;5.502;2022-08-19T04:06:58;33.33;;;25.70;;
51368;SDS011;37459;51.416;5.502;2022-08-19T04:09:24;36.13;;;27.40;;
51368;SDS011;37459;51.416;5.502;2022-08-19T04:11:53;33.25;;;25.48;;
51368;SDS011;37459;51.416;5.502;2022-08-19T04:14:21;33.10;;;24.65;;
51368;SDS011;37459;51.416;5.502;2022-08-19T04:16:51;33.72;;;25.30;;
51368;SDS011;37459;51.416;5.502;2022-08-19T04:19:18;37.33;;;27.13;;
51368;SDS011;37459;51.416;5.502;2022-08-19T04:21:46;36.08;;;26.20;;
51368;SDS011;37459;51.416;5.502;2022-08-19T04:24:13;33.50;;;25.55;;
51368;SDS011;37459;51.416;5.502;2022-08-19T04:26:40;34.97;;;25.30;;
51368;SDS011;37459;51.416;5.502;2022-08-19T04:29:08;35.35;;;26.75;;
51368;SDS011;37459;51.416;5.502;2022-08-19T04:31:36;35.28;;;26.48;;
51368;SDS011;37459;51.416;5.502;2022-08-19T04:34:05;34.70;;;26.15;;
51368;SDS011;37459;51.416;5.502;2022-08-19T04:36:36;34.92;;;27.45;;
51368;SDS011;37459;51.416;5.502;2022-08-19T04:39:04;38.22;;;27.95;;
51368;SDS011;37459;51.416;5.502;2022-08-19T04:41:33;38.67;;;28.88;;
51368;SDS011;37459;51.416;5.502;2022-08-19T04:44:17;38.97;;;29.17;;
51368;SDS011;37459;51.416;5.502;2022-08-19T04:46:44;41.85;;;30.23;;
51368;SDS011;37459;51.416;5.502;2022-08-19T04:49:13;36.25;;;27.90;;
51368;SDS011;37459;51.416;5.502;2022-08-19T04:51:42;41.72;;;30.30;;
51368;SDS011;37459;51.416;5.502;2022-08-19T04:54:09;38.70;;;28.95;;
51368;SDS011;37459;51.416;5.502;2022-08-19T04:56:36;41.13;;;28.80;;
51368;SDS011;37459;51.416;5.502;2022-08-19T04:59:02;37.17;;;27.33;;
51368;SDS011;37459;51.416;5.502;2022-08-19T05:01:29;37.85;;;28.55;;
51368;SDS011;37459;51.416;5.502;2022-08-19T05:03:58;38.33;;;29.98;;
51368;SDS011;37459;51.416;5.502;2022-08-19T05:06:27;39.78;;;28.63;;
51368;SDS011;37459;51.416;5.502;2022-08-19T05:08:57;41.58;;;29.98;;
51368;SDS011;37459;51.416;5.502;2022-08-19T05:11:25;40.88;;;30.42;;
51368;SDS011;37459;51.416;5.502;2022-08-19T05:13:54;43.55;;;32.03;;
51368;SDS011;37459;51.416;5.502;2022-08-19T05:16:22;43.08;;;31.50;;
51368;SDS011;37459;51.416;5.502;2022-08-19T05:18:50;40.90;;;29.58;;
51368;SDS011;37459;51.416;5.502;2022-08-19T05:21:36;42.55;;;30.05;;
51368;SDS011;37459;51.416;5.502;2022-08-19T05:24:21;43.53;;;30.55;;
51368;SDS011;37459;51.416;5.502;2022-08-19T05:26:50;43.78;;;31.50;;
51368;SDS011;37459;51.416;5.502;2022-08-19T05:29:21;46.42;;;32.33;;
51368;SDS011;37459;51.416;5.502;2022-08-19T05:31:49;45.33;;;31.88;;
51368;SDS011;37459;51.416;5.502;2022-08-19T05:34:16;47.92;;;32.67;;
51368;SDS011;37459;51.416;5.502;2022-08-19T05:36:48;48.35;;;32.38;;
51368;SDS011;37459;51.416;5.502;2022-08-19T05:39:17;52.55;;;33.90;;
51368;SDS011;37459;51.416;5.502;2022-08-19T05:41:46;49.58;;;34.75;;
51368;SDS011;37459;51.416;5.502;2022-08-19T05:44:14;50.78;;;34.88;;
51368;SDS011;37459;51.416;5.502;2022-08-19T05:46:42;48.22;;;33.47;;
51368;SDS011;37459;51.416;5.502;2022-08-19T05:49:11;54.30;;;35.40;;
51368;SDS011;37459;51.416;5.502;2022-08-19T05:51:38;57.58;;;36.28;;
51368;SDS011;37459;51.416;5.502;2022-08-19T05:54:07;60.10;;;37.38;;
51368;SDS011;37459;51.416;5.502;2022-08-19T05:56:33;57.50;;;36.80;;
51368;SDS011;37459;51.416;5.502;2022-08-19T05:59:03;64.10;;;39.28;;
51368;SDS011;37459;51.416;5.502;2022-08-19T06:01:35;64.82;;;39.15;;
51368;SDS011;37459;51.416;5.502;2022-08-19T06:04:03;66.65;;;41.40;;
51368;SDS011;37459;51.416;5.502;2022-08-19T06:06:30;67.30;;;40.50;;
51368;SDS011;37459;51.416;5.502;2022-08-19T06:08:59;69.78;;;41.00;;
51368;SDS011;37459;51.416;5.502;2022-08-19T06:11:33;64.47;;;40.08;;
51368;SDS011;37459;51.416;5.502;2022-08-19T06:14:01;66.45;;;40.85;;
51368;SDS011;37459;51.416;5.502;2022-08-19T06:16:33;64.90;;;39.90;;
51368;SDS011;37459;51.416;5.502;2022-08-19T06:19:00;70.75;;;42.22;;
51368;SDS011;37459;51.416;5.502;2022-08-19T06:21:29;98.95;;;60.72;;
51368;SDS011;37459;51.416;5.502;2022-08-19T06:23:56;72.38;;;43.30;;
51368;SDS011;37459;51.416;5.502;2022-08-19T06:26:23;59.63;;;36.53;;
51368;SDS011;37459;51.416;5.502;2022-08-19T06:28:52;57.60;;;34.45;;
51368;SDS011;37459;51.416;5.502;2022-08-19T06:31:21;153.93;;;102.93;;
51368;SDS011;37459;51.416;5.502;2022-08-19T06:33:49;65.85;;;42.75;;
51368;SDS011;37459;51.416;5.502;2022-08-19T06:36:16;58.65;;;36.25;;
51368;SDS011;37459;51.416;5.502;2022-08-19T06:38:44;55.70;;;32.65;;
51368;SDS011;37459;51.416;5.502;2022-08-19T06:41:10;59.45;;;35.67;;
51368;SDS011;37459;51.416;5.502;2022-08-19T06:43:37;60.28;;;35.38;;
51368;SDS011;37459;51.416;5.502;2022-08-19T06:46:08;49.30;;;30.25;;
51368;SDS011;37459;51.416;5.502;2022-08-19T06:48:36;51.92;;;32.80;;
51368;SDS011;37459;51.416;5.502;2022-08-19T06:51:03;50.67;;;31.02;;
51368;SDS011;37459;51.416;5.502;2022-08-19T06:53:30;59.13;;;35.38;;
51368;SDS011;37459;51.416;5.502;2022-08-19T06:55:57;60.97;;;36.67;;
51368;SDS011;37459;51.416;5.502;2022-08-19T06:58:27;61.13;;;37.25;;
51368;SDS011;37459;51.416;5.502;2022-08-19T07:00:57;57.60;;;35.55;;
51368;SDS011;37459;51.416;5.502;2022-08-19T07:03:27;58.28;;;36.10;;
51368;SDS011;37459;51.416;5.502;2022-08-19T07:05:55;54.58;;;35.05;;
51368;SDS011;37459;51.416;5.502;2022-08-19T07:08:22;52.15;;;33.45;;
51368;SDS011;37459;51.416;5.502;2022-08-19T07:10:51;55.30;;;32.70;;
51368;SDS011;37459;51.416;5.502;2022-08-19T07:13:18;53.28;;;32.05;;
51368;SDS011;37459;51.416;5.502;2022-08-19T07:15:46;53.58;;;32.92;;
51368;SDS011;37459;51.416;5.502;2022-08-19T07:18:15;181.85;;;34.53;;
51368;SDS011;37459;51.416;5.502;2022-08-19T07:20:43;78.35;;;31.48;;
51368;SDS011;37459;51.416;5.502;2022-08-19T07:23:10;66.80;;;30.38;;
51368;SDS011;37459;51.416;5.502;2022-08-19T07:25:37;57.15;;;29.77;;
51368;SDS011;37459;51.416;5.502;2022-08-19T07:28:04;58.45;;;30.25;;
51368;SDS011;37459;51.416;5.502;2022-08-19T07:30:32;54.78;;;31.95;;
51368;SDS011;37459;51.416;5.502;2022-08-19T07:32:58;52.50;;;30.55;;
51368;SDS011;37459;51.416;5.502;2022-08-19T07:35:25;50.95;;;29.45;;
51368;SDS011;37459;51.416;5.502;2022-08-19T07:37:54;54.75;;;26.60;;
51368;SDS011;37459;51.416;5.502;2022-08-19T07:40:21;52.30;;;29.10;;
51368;SDS011;37459;51.416;5.502;2022-08-19T07:42:47;49.05;;;29.63;;
51368;SDS011;37459;51.416;5.502;2022-08-19T07:45:14;48.45;;;29.33;;
51368;SDS011;37459;51.416;5.502;2022-08-19T07:47:40;48.45;;;28.77;;
51368;SDS011;37459;51.416;5.502;2022-08-19T07:50:08;42.45;;;26.98;;
51368;SDS011;37459;51.416;5.502;2022-08-19T07:52:37;40.38;;;25.80;;
51368;SDS011;37459;51.416;5.502;2022-08-19T07:55:07;43.97;;;26.80;;
51368;SDS011;37459;51.416;5.502;2022-08-19T07:57:35;58.58;;;36.28;;
51368;SDS011;37459;51.416;5.502;2022-08-19T08:00:03;43.50;;;27.65;;
51368;SDS011;37459;51.416;5.502;2022-08-19T08:02:31;43.22;;;27.42;;
51368;SDS011;37459;51.416;5.502;2022-08-19T08:04:57;38.78;;;25.88;;
51368;SDS011;37459;51.416;5.502;2022-08-19T08:07:41;41.70;;;26.35;;
51368;SDS011;37459;51.416;5.502;2022-08-19T08:10:26;49.35;;;30.20;;
51368;SDS011;37459;51.416;5.502;2022-08-19T08:12:53;40.20;;;26.92;;
51368;SDS011;37459;51.416;5.502;2022-08-19T08:15:20;36.55;;;25.73;;
51368;SDS011;37459;51.416;5.502;2022-08-19T08:17:46;44.35;;;28.17;;
51368;SDS011;37459;51.416;5.502;2022-08-19T08:20:14;44.13;;;28.70;;
51368;SDS011;37459;51.416;5.502;2022-08-19T08:22:42;40.25;;;26.55;;
51368;SDS011;37459;51.416;5.502;2022-08-19T08:25:28;37.15;;;26.98;;
51368;SDS011;37459;51.416;5.502;2022-08-19T08:27:56;44.00;;;29.23;;
51368;SDS011;37459;51.416;5.502;2022-08-19T08:30:25;35.20;;;26.98;;
51368;SDS011;37459;51.416;5.502;2022-08-19T08:32:53;43.38;;;29.17;;
51368;SDS011;37459;51.416;5.502;2022-08-19T08:35:21;42.58;;;27.73;;
51368;SDS011;37459;51.416;5.502;2022-08-19T08:37:49;39.60;;;28.33;;
51368;SDS011;37459;51.416;5.502;2022-08-19T08:40:18;42.53;;;31.58;;
51368;SDS011;37459;51.416;5.502;2022-08-19T08:42:51;39.60;;;30.20;;
51368;SDS011;37459;51.416;5.502;2022-08-19T08:45:25;35.15;;;27.58;;
51368;SDS011;37459;51.416;5.502;2022-08-19T08:47:52;38.70;;;28.40;;
51368;SDS011;37459;51.416;5.502;2022-08-19T08:50:24;36.83;;;29.58;;
51368;SDS011;37459;51.416;5.502;2022-08-19T08:53:00;39.40;;;30.63;;
51368;SDS011;37459;51.416;5.502;2022-08-19T08:55:28;45.83;;;32.50;;
51368;SDS011;37459;51.416;5.502;2022-08-19T08:57:58;41.10;;;30.20;;
51368;SDS011;37459;51.416;5.502;2022-08-19T09:00:27;39.13;;;32.40;;
51368;SDS011;37459;51.416;5.502;2022-08-19T09:02:57;38.25;;;29.50;;
51368;SDS011;37459;51.416;5.502;2022-08-19T09:05:26;43.00;;;32.05;;
51368;SDS011;37459;51.416;5.502;2022-08-19T09:08:02;34.88;;;29.45;;
51368;SDS011;37459;51.416;5.502;2022-08-19T09:10:34;34.22;;;28.98;;
51368;SDS011;37459;51.416;5.502;2022-08-19T09:13:09;38.33;;;28.27;;
51368;SDS011;37459;51.416;5.502;2022-08-19T09:15:48;31.00;;;25.65;;
51368;SDS011;37459;51.416;5.502;2022-08-19T09:18:19;35.00;;;28.85;;
51368;SDS011;37459;51.416;5.502;2022-08-19T09:20:45;33.58;;;26.48;;
51368;SDS011;37459;51.416;5.502;2022-08-19T09:23:13;31.30;;;25.77;;
51368;SDS011;37459;51.416;5.502;2022-08-19T09:25:39;31.33;;;25.30;;
51368;SDS011;37459;51.416;5.502;2022-08-19T09:28:07;28.20;;;23.70;;
51368;SDS011;37459;51.416;5.502;2022-08-19T09:30:34;28.00;;;21.33;;
51368;SDS011;37459;51.416;5.502;2022-08-19T09:33:05;24.88;;;20.42;;
51368;SDS011;37459;51.416;5.502;2022-08-19T09:35:32;27.15;;;20.85;;
51368;SDS011;37459;51.416;5.502;2022-08-19T09:38:00;26.95;;;20.25;;
51368;SDS011;37459;51.416;5.502;2022-08-19T09:40:27;25.77;;;20.40;;
51368;SDS011;37459;51.416;5.502;2022-08-19T09:42:54;28.02;;;21.17;;
51368;SDS011;37459;51.416;5.502;2022-08-19T09:45:23;30.10;;;22.08;;
51368;SDS011;37459;51.416;5.502;2022-08-19T09:47:50;29.60;;;20.67;;
51368;SDS011;37459;51.416;5.502;2022-08-19T09:50:18;29.70;;;22.85;;
51368;SDS011;37459;51.416;5.502;2022-08-19T09:52:45;33.42;;;22.30;;
51368;SDS011;37459;51.416;5.502;2022-08-19T09:55:12;31.85;;;23.60;;
51368;SDS011;37459;51.416;5.502;2022-08-19T09:57:38;32.53;;;24.15;;
51368;SDS011;37459;51.416;5.502;2022-08-19T10:00:06;34.80;;;21.73;;
51368;SDS011;37459;51.416;5.502;2022-08-19T10:02:35;27.33;;;20.73;;
51368;SDS011;37459;51.416;5.502;2022-08-19T10:05:02;29.05;;;20.20;;
51368;SDS011;37459;51.416;5.502;2022-08-19T10:07:46;23.67;;;19.13;;
51368;SDS011;37459;51.416;5.502;2022-08-19T10:10:13;26.45;;;17.98;;
51368;SDS011;37459;51.416;5.502;2022-08-19T10:12:40;23.63;;;16.15;;
51368;SDS011;37459;51.416;5.502;2022-08-19T10:15:07;25.73;;;15.80;;
51368;SDS011;37459;51.416;5.502;2022-08-19T10:17:36;22.88;;;15.00;;
51368;SDS011;37459;51.416;5.502;2022-08-19T10:20:02;22.73;;;14.90;;
51368;SDS011;37459;51.416;5.502;2022-08-19T10:22:30;23.58;;;14.38;;
51368;SDS011;37459;51.416;5.502;2022-08-19T10:24:57;24.25;;;16.55;;
51368;SDS011;37459;51.416;5.502;2022-08-19T10:27:23;21.13;;;14.40;;
51368;SDS011;37459;51.416;5.502;2022-08-19T10:29:50;19.38;;;13.88;;
51368;SDS011;37459;51.416;5.502;2022-08-19T10:32:16;22.15;;;13.52;;
51368;SDS011;37459;51.416;5.502;2022-08-19T10:34:44;18.80;;;12.98;;
51368;SDS011;37459;51.416;5.502;2022-08-19T10:37:11;17.08;;;12.20;;
51368;SDS011;37459;51.416;5.502;2022-08-19T10:39:38;20.38;;;13.05;;
51368;SDS011;37459;51.416;5.502;2022-08-19T10:42:04;19.92;;;13.52;;
51368;SDS011;37459;51.416;5.502;2022-08-19T10:44:32;17.48;;;11.38;;
51368;SDS011;37459;51.416;5.502;2022-08-19T10:47:00;22.33;;;12.98;;
51368;SDS011;37459;51.416;5.502;2022-08-19T10:49:27;19.13;;;11.93;;
51368;SDS011;37459;51.416;5.502;2022-08-19T10:51:55;18.52;;;11.63;;
51368;SDS011;37459;51.416;5.502;2022-08-19T10:54:40;16.90;;;11.18;;
51368;SDS011;37459;51.416;5.502;2022-08-19T10:57:24;20.95;;;12.18;;
51368;SDS011;37459;51.416;5.502;2022-08-19T10:59:54;19.85;;;12.88;;
51368;SDS011;37459;51.416;5.502;2022-08-19T11:02:20;19.20;;;12.70;;
51368;SDS011;37459;51.416;5.502;2022-08-19T11:04:47;23.13;;;14.10;;
51368;SDS011;37459;51.416;5.502;2022-08-19T11:07:16;25.83;;;15.93;;
51368;SDS011;37459;51.416;5.502;2022-08-19T11:09:43;23.08;;;16.00;;
51368;SDS011;37459;51.416;5.502;2022-08-19T11:12:11;20.45;;;14.98;;
51368;SDS011;37459;51.416;5.502;2022-08-19T11:14:39;23.45;;;14.95;;
51368;SDS011;37459;51.416;5.502;2022-08-19T11:17:06;22.85;;;14.27;;
51368;SDS011;37459;51.416;5.502;2022-08-19T11:19:32;22.88;;;15.23;;
51368;SDS011;37459;51.416;5.502;2022-08-19T11:22:00;24.25;;;16.42;;
51368;SDS011;37459;51.416;5.502;2022-08-19T11:24:30;28.27;;;17.30;;
51368;SDS011;37459;51.416;5.502;2022-08-19T11:27:00;22.70;;;16.15;;
51368;SDS011;37459;51.416;5.502;2022-08-19T11:29:29;26.70;;;16.60;;
51368;SDS011;37459;51.416;5.502;2022-08-19T11:31:56;25.90;;;17.65;;
51368;SDS011;37459;51.416;5.502;2022-08-19T11:34:23;26.60;;;16.90;;
51368;SDS011;37459;51.416;5.502;2022-08-19T11:36:54;28.02;;;18.40;;
51368;SDS011;37459;51.416;5.502;2022-08-19T11:39:23;26.52;;;18.13;;
51368;SDS011;37459;51.416;5.502;2022-08-19T11:41:52;35.28;;;19.58;;
51368;SDS011;37459;51.416;5.502;2022-08-19T11:44:18;33.55;;;22.35;;
51368;SDS011;37459;51.416;5.502;2022-08-19T11:46:45;32.00;;;22.33;;
51368;SDS011;37459;51.416;5.502;2022-08-19T11:49:12;34.80;;;19.20;;
51368;SDS011;37459;51.416;5.502;2022-08-19T11:51:38;27.65;;;18.90;;
51368;SDS011;37459;51.416;5.502;2022-08-19T11:54:07;30.92;;;21.02;;
51368;SDS011;37459;51.416;5.502;2022-08-19T11:56:34;29.58;;;22.30;;
51368;SDS011;37459;51.416;5.502;2022-08-19T11:59:03;31.63;;;22.77;;
51368;SDS011;37459;51.416;5.502;2022-08-19T12:01:30;31.02;;;20.88;;
51368;SDS011;37459;51.416;5.502;2022-08-19T12:03:57;28.55;;;20.35;;
51368;SDS011;37459;51.416;5.502;2022-08-19T12:06:25;33.58;;;22.65;;
51368;SDS011;37459;51.416;5.502;2022-08-19T12:08:53;32.05;;;21.45;;
51368;SDS011;37459;51.416;5.502;2022-08-19T12:11:20;33.83;;;21.48;;
51368;SDS011;37459;51.416;5.502;2022-08-19T12:13:47;30.50;;;20.33;;
51368;SDS011;37459;51.416;5.502;2022-08-19T12:16:16;35.53;;;25.75;;
51368;SDS011;37459;51.416;5.502;2022-08-19T12:18:44;27.88;;;19.60;;
51368;SDS011;37459;51.416;5.502;2022-08-19T12:21:12;27.98;;;19.92;;
51368;SDS011;37459;51.416;5.502;2022-08-19T12:23:39;28.42;;;20.13;;
51368;SDS011;37459;51.416;5.502;2022-08-19T12:26:06;33.47;;;19.83;;
51368;SDS011;37459;51.416;5.502;2022-08-19T12:28:32;26.15;;;19.08;;
51368;SDS011;37459;51.416;5.502;2022-08-19T12:30:59;30.83;;;21.17;;
51368;SDS011;37459;51.416;5.502;2022-08-19T12:33:27;32.22;;;22.00;;
51368;SDS011;37459;51.416;5.502;2022-08-19T12:35:53;29.38;;;20.60;;
51368;SDS011;37459;51.416;5.502;2022-08-19T12:38:20;35.53;;;26.30;;
51368;SDS011;37459;51.416;5.502;2022-08-19T12:40:49;28.25;;;19.55;;
51368;SDS011;37459;51.416;5.502;2022-08-19T12:43:16;26.88;;;20.05;;
51368;SDS011;37459;51.416;5.502;2022-08-19T12:45:44;34.78;;;19.92;;
51368;SDS011;37459;51.416;5.502;2022-08-19T12:48:11;64.45;;;19.08;;
51368;SDS011;37459;51.416;5.502;2022-08-19T12:50:40;24.83;;;16.88;;
51368;SDS011;37459;51.416;5.502;2022-08-19T12:53:06;24.48;;;16.67;;
51368;SDS011;37459;51.416;5.502;2022-08-19T12:55:33;23.40;;;16.67;;
51368;SDS011;37459;51.416;5.502;2022-08-19T12:58:00;26.13;;;16.88;;
51368;SDS011;37459;51.416;5.502;2022-08-19T13:00:27;25.85;;;15.73;;
51368;SDS011;37459;51.416;5.502;2022-08-19T13:02:55;25.13;;;16.13;;
51368;SDS011;37459;51.416;5.502;2022-08-19T13:05:23;21.83;;;15.15;;
51368;SDS011;37459;51.416;5.502;2022-08-19T13:07:53;20.25;;;14.38;;
51368;SDS011;37459;51.416;5.502;2022-08-19T13:10:23;23.33;;;15.35;;
51368;SDS011;37459;51.416;5.502;2022-08-19T13:12:53;19.50;;;13.60;;
51368;SDS011;37459;51.416;5.502;2022-08-19T13:15:20;17.10;;;11.70;;
51368;SDS011;37459;51.416;5.502;2022-08-19T13:17:48;16.48;;;10.82;;
51368;SDS011;37459;51.416;5.502;2022-08-19T13:20:16;14.85;;;10.80;;
51368;SDS011;37459;51.416;5.502;2022-08-19T13:22:45;13.10;;;9.90;;
51368;SDS011;37459;51.416;5.502;2022-08-19T13:25:14;17.40;;;11.10;;
51368;SDS011;37459;51.416;5.502;2022-08-19T13:27:44;16.95;;;11.90;;
51368;SDS011;37459;51.416;5.502;2022-08-19T13:30:12;15.73;;;10.75;;
51368;SDS011;37459;51.416;5.502;2022-08-19T13:32:58;16.05;;;11.05;;
51368;SDS011;37459;51.416;5.502;2022-08-19T13:35:43;16.63;;;11.25;;
51368;SDS011;37459;51.416;5.502;2022-08-19T13:38:11;15.75;;;9.90;;
51368;SDS011;37459;51.416;5.502;2022-08-19T13:40:40;16.50;;;11.38;;
51368;SDS011;37459;51.416;5.502;2022-08-19T13:43:07;14.80;;;10.60;;
51368;SDS011;37459;51.416;5.502;2022-08-19T13:45:35;18.58;;;10.90;;
51368;SDS011;37459;51.416;5.502;2022-08-19T13:48:02;13.05;;;9.63;;
51368;SDS011;37459;51.416;5.502;2022-08-19T13:50:32;15.98;;;10.77;;
51368;SDS011;37459;51.416;5.502;2022-08-19T13:52:59;12.48;;;9.77;;
51368;SDS011;37459;51.416;5.502;2022-08-19T13:55:29;15.10;;;11.25;;
51368;SDS011;37459;51.416;5.502;2022-08-19T13:57:57;16.88;;;10.63;;
51368;SDS011;37459;51.416;5.502;2022-08-19T14:00:27;13.80;;;9.43;;
51368;SDS011;37459;51.416;5.502;2022-08-19T14:02:55;13.23;;;9.38;;
51368;SDS011;37459;51.416;5.502;2022-08-19T14:05:23;12.52;;;9.18;;
51368;SDS011;37459;51.416;5.502;2022-08-19T14:07:51;13.43;;;8.32;;
51368;SDS011;37459;51.416;5.502;2022-08-19T14:10:18;14.85;;;10.02;;
51368;SDS011;37459;51.416;5.502;2022-08-19T14:12:45;10.70;;;8.15;;
51368;SDS011;37459;51.416;5.502;2022-08-19T14:15:14;11.45;;;8.05;;
51368;SDS011;37459;51.416;5.502;2022-08-19T14:17:44;14.13;;;8.88;;
51368;SDS011;37459;51.416;5.502;2022-08-19T14:20:13;11.50;;;7.72;;
51368;SDS011;37459;51.416;5.502;2022-08-19T14:22:41;8.93;;;7.18;;
51368;SDS011;37459;51.416;5.502;2022-08-19T14:25:10;12.30;;;8.57;;
51368;SDS011;37459;51.416;5.502;2022-08-19T14:27:41;12.18;;;8.00;;